createdAt,value
2018-06-23T14:34:00.079Z,99351.67
2018-06-23T14:36:29.058Z,99353.69
2018-06-23T14:38:58.178Z,99351.92
2018-06-23T14:41:27.920Z,99355.23
2018-06-23T14:43:57.288Z,99351.65
2018-06-23T14:46:26.337Z,99350.76
2018-06-23T14:48:57.897Z,99351.88
2018-06-23T14:51:27.137Z,99355.27
2018-06-23T14:53:57.701Z,99352.17
2018-06-23T14:56:26.582Z,99350.00
2018-06-23T14:58:55.626Z,99352.96
2018-06-23T15:01:25.089Z,99350.39
2018-06-23T15:03:54.204Z,99346.46
2018-06-23T15:06:23.185Z,99350.47
2018-06-23T15:09:03.236Z,99349.56
2018-06-23T15:11:43.141Z,99343.45
2018-06-23T15:14:12.392Z,99342.52
2018-06-23T15:16:41.472Z,99351.88
2018-06-23T15:19:10.615Z,99353.81
2018-06-23T15:21:40.234Z,99353.61
2018-06-23T15:24:09.192Z,99352.25
2018-06-23T15:26:38.308Z,99352.84
2018-06-23T15:29:07.501Z,99351.95
2018-06-23T15:31:36.420Z,99351.11
2018-06-23T15:34:05.640Z,99353.82
2018-06-23T15:36:35.729Z,99343.58
2018-06-23T15:39:07.113Z,99354.92
2018-06-23T15:41:36.156Z,99344.23
2018-06-23T15:44:05.216Z,99344.92
2018-06-23T15:46:34.659Z,99345.84
2018-06-23T15:49:03.933Z,99350.60
2018-06-23T15:51:32.897Z,99347.63
2018-06-23T15:54:04.139Z,99353.14
2018-06-23T15:56:33.228Z,99348.09
2018-06-23T15:59:02.414Z,99343.25
2018-06-23T16:01:31.456Z,99356.02
2018-06-23T16:04:02.485Z,99350.53
2018-06-23T16:06:31.565Z,99350.39
2018-06-23T16:09:00.637Z,99353.75
2018-06-23T16:11:29.801Z,99362.44
2018-06-23T16:13:58.905Z,99361.16
2018-06-23T16:16:28.016Z,99362.78
2018-06-23T16:18:57.124Z,99365.17
2018-06-23T16:21:27.049Z,99369.19
2018-06-23T16:23:56.017Z,99380.14
2018-06-23T16:26:25.219Z,99376.55
2018-06-23T16:28:54.279Z,99374.56
2018-06-23T16:31:23.421Z,99378.36
2018-06-23T16:33:52.465Z,99382.56
2018-06-23T16:36:21.478Z,99381.33
2018-06-23T16:38:50.739Z,99386.39
2018-06-23T16:41:19.686Z,99384.83
2018-06-23T16:43:48.726Z,99395.45
2018-06-23T16:46:17.917Z,99398.09
2018-06-23T16:48:46.876Z,99395.69
2018-06-23T16:51:15.865Z,99397.47
2018-06-23T16:53:44.976Z,99406.44
2018-06-23T16:56:14.131Z,99412.96
2018-06-23T16:58:43.108Z,99408.66
2018-06-23T17:01:12.747Z,99412.05
2018-06-23T17:03:41.878Z,99419.36
2018-06-23T17:06:10.826Z,99418.91
2018-06-23T17:08:40.222Z,99416.54
2018-06-23T17:11:10.329Z,99420.95
2018-06-23T17:13:39.838Z,99416.39
2018-06-23T17:16:09.565Z,99430.59
2018-06-23T17:18:39.112Z,99433.03
2018-06-23T17:21:08.266Z,99428.03
2018-06-23T17:23:37.642Z,99429.69
2018-06-23T17:26:08.686Z,99431.41
2018-06-23T17:28:38.240Z,99435.47
2018-06-23T17:31:07.185Z,99435.98
2018-06-23T17:33:37.236Z,99441.23
2018-06-23T17:36:06.326Z,99449.50
2018-06-23T17:38:35.413Z,99458.55
2018-06-23T17:41:04.495Z,99454.67
2018-06-23T17:43:33.692Z,99462.09
2018-06-23T17:46:02.614Z,99470.14
2018-06-23T17:48:31.744Z,99476.11
2018-06-23T17:51:00.806Z,99470.14
2018-06-23T17:53:29.957Z,99466.05
2018-06-23T17:55:59.031Z,99473.75
2018-06-23T17:58:28.151Z,99482.28
2018-06-23T18:00:57.236Z,99483.40
2018-06-23T18:03:26.242Z,99489.84
2018-06-23T18:05:55.850Z,99498.19
2018-06-23T18:08:25.159Z,99497.25
2018-06-23T18:10:54.205Z,99501.90
2018-06-23T18:13:23.344Z,99502.89
2018-06-23T18:15:52.313Z,99514.15
2018-06-23T18:18:21.332Z,99514.06
2018-06-23T18:20:51.071Z,99519.04
2018-06-23T18:23:20.054Z,99524.33
2018-06-23T18:25:49.223Z,99527.27
2018-06-23T18:28:18.164Z,99529.52
2018-06-23T18:30:47.067Z,99531.98
2018-06-23T18:33:16.116Z,99538.30
2018-06-23T18:35:45.635Z,99538.00
2018-06-23T18:38:14.577Z,99549.70
2018-06-23T18:40:43.689Z,99556.66
2018-06-23T18:43:12.859Z,99563.06
2018-06-23T18:45:41.909Z,99564.02
2018-06-23T18:48:10.940Z,99569.16
2018-06-23T18:50:40.179Z,99577.74
2018-06-23T18:53:10.290Z,99589.98
2018-06-23T18:55:40.738Z,99586.56
2018-06-23T18:58:09.887Z,99596.16
2018-06-23T19:00:38.965Z,99599.98
2018-06-23T19:03:08.092Z,99605.91
2018-06-23T19:05:37.083Z,99607.55
2018-06-23T19:08:06.325Z,99612.02
2018-06-23T19:10:35.900Z,99617.12
2018-06-23T19:13:05.014Z,99615.06
2018-06-23T19:15:34.182Z,99610.67
2018-06-23T19:18:04.989Z,99616.68
2018-06-23T19:20:34.244Z,99619.41
2018-06-23T19:23:03.649Z,99621.66
2018-06-23T19:25:32.751Z,99628.70
2018-06-23T19:28:01.656Z,99631.28
2018-06-23T19:30:30.744Z,99633.06
2018-06-23T19:33:00.059Z,99632.12
2018-06-23T19:35:29.230Z,99640.52
2018-06-23T19:37:58.501Z,99634.00
2018-06-23T19:40:27.517Z,99639.83
2018-06-23T19:42:56.537Z,99647.98
2018-06-23T19:45:25.615Z,99648.43
2018-06-23T19:47:54.825Z,99643.80
2018-06-23T19:50:23.895Z,99644.53
2018-06-23T19:52:52.938Z,99641.89
2018-06-23T19:55:22.567Z,99653.80
2018-06-23T19:57:51.441Z,99654.73
2018-06-23T20:00:20.445Z,99654.95
2018-06-23T20:02:50.035Z,99653.80
2018-06-23T20:05:18.941Z,99661.48
2018-06-23T20:07:47.857Z,99649.56
2018-06-23T20:10:17.155Z,99656.97
2018-06-23T20:12:46.189Z,99659.08
2018-06-23T20:15:16.392Z,99662.06
2018-06-23T20:17:45.810Z,99659.55
2018-06-23T20:20:14.686Z,99660.19
2018-06-23T20:22:43.805Z,99666.80
2018-06-23T20:25:13.104Z,99657.34
2018-06-23T20:27:42.031Z,99670.12
2018-06-23T20:30:11.160Z,99672.73
2018-06-23T20:32:40.745Z,99677.77
2018-06-23T20:35:09.836Z,99680.15
2018-06-23T20:37:39.720Z,99680.02
2018-06-23T20:40:09.082Z,99683.19
2018-06-23T20:42:37.961Z,99685.77
2018-06-23T20:45:07.324Z,99689.79
2018-06-23T20:47:37.790Z,99684.22
2018-06-23T20:50:06.802Z,99689.58
2018-06-23T20:52:35.883Z,99689.94
2018-06-23T20:55:05.484Z,99687.52
2018-06-23T20:57:34.341Z,99695.09
2018-06-23T21:00:03.376Z,99695.83
2018-06-23T21:02:32.405Z,99694.14
2018-06-23T21:05:01.528Z,99691.23
2018-06-23T21:07:30.566Z,99694.39
2018-06-23T21:09:59.872Z,99688.09
2018-06-23T21:12:28.992Z,99693.33
2018-06-23T21:14:58.227Z,99685.55
2018-06-23T21:17:27.500Z,99687.26
2018-06-23T21:19:56.475Z,99684.61
2018-06-23T21:22:25.639Z,99679.61
2018-06-23T21:24:54.824Z,99685.45
2018-06-23T21:27:23.919Z,99685.70
2018-06-23T21:29:53.053Z,99683.25
2018-06-23T21:32:22.625Z,99688.37
2018-06-23T21:34:51.769Z,99682.53
2018-06-23T21:37:20.851Z,99688.36
2018-06-23T21:39:50.400Z,99680.00
2018-06-23T21:42:19.421Z,99680.70
2018-06-23T21:44:48.423Z,99680.58
2018-06-23T21:47:19.420Z,99683.16
2018-06-23T21:49:48.498Z,99681.92
2018-06-23T21:52:17.541Z,99685.45
2018-06-23T21:54:46.980Z,99686.32
2018-06-23T21:57:15.923Z,99688.11
2018-06-23T21:59:45.007Z,99687.64
2018-06-23T22:02:14.661Z,99687.23
2018-06-23T22:04:43.651Z,99682.48
2018-06-23T22:07:12.745Z,99684.31
2018-06-23T22:09:42.364Z,99685.55
2018-06-23T22:12:11.280Z,99688.22
2018-06-23T22:14:40.373Z,99692.56
2018-06-23T22:17:09.924Z,99689.53
2018-06-23T22:19:39.082Z,99688.30
2018-06-23T22:22:08.298Z,99689.39
2018-06-23T22:24:37.747Z,99691.58
2018-06-23T22:27:06.751Z,99687.33
2018-06-23T22:29:35.780Z,99686.59
2018-06-23T22:32:05.219Z,99684.91
2018-06-23T22:34:34.235Z,99683.09
2018-06-23T22:37:03.359Z,99684.91
2018-06-23T22:39:32.905Z,99682.60
2018-06-23T22:42:01.869Z,99688.30
2018-06-23T22:44:31.004Z,99685.88
2018-06-23T22:47:00.477Z,99687.06
2018-06-23T22:49:29.588Z,99684.03
2018-06-23T22:51:58.606Z,99682.09
2018-06-23T22:54:28.075Z,99686.59
2018-06-23T22:56:57.054Z,99683.55
2018-06-23T22:59:26.098Z,99684.64
2018-06-23T23:01:55.319Z,99691.07
2018-06-23T23:04:24.262Z,99691.09
2018-06-23T23:06:53.174Z,99691.09
2018-06-23T23:09:22.793Z,99682.73
2018-06-23T23:11:51.811Z,99679.44
2018-06-23T23:14:20.980Z,99677.39
2018-06-23T23:16:49.939Z,99678.36
2018-06-23T23:19:19.759Z,99675.84
2018-06-23T23:21:48.761Z,99676.41
2018-06-23T23:24:18.216Z,99670.48
2018-06-23T23:26:47.116Z,99670.23
2018-06-23T23:29:16.039Z,99668.91
2018-06-23T23:31:45.520Z,99665.87
2018-06-23T23:34:14.502Z,99661.51
2018-06-23T23:36:43.643Z,99666.23
2018-06-23T23:39:12.765Z,99660.90
2018-06-23T23:41:41.897Z,99662.23
2018-06-23T23:44:10.954Z,99667.57
2018-06-23T23:46:39.997Z,99663.31
2018-06-23T23:49:09.016Z,99668.17
2018-06-23T23:51:38.072Z,99658.46
2018-06-23T23:54:07.224Z,99661.37
2018-06-23T23:56:36.255Z,99658.34
2018-06-23T23:59:05.310Z,99657.98
